sensor_id;sensor_type;location;lat;lon;timestamp;P1;durP1;ratioP1;P2;durP2;ratioP2
9214;SDS011;4642;51.364;6.788;2023-03-12T00:01:11;7.27;;;3.23;;
9214;SDS011;4642;51.364;6.788;2023-03-12T00:03:38;8.70;;;3.37;;
9214;SDS011;4642;51.364;6.788;2023-03-12T00:06:04;7.40;;;3.40;;
9214;SDS011;4642;51.364;6.788;2023-03-12T00:08:30;6.23;;;3.80;;
9214;SDS011;4642;51.364;6.788;2023-03-12T00:10:56;8.63;;;3.10;;
9214;SDS011;4642;51.364;6.788;2023-03-12T00:13:21;6.83;;;3.30;;
9214;SDS011;4642;51.364;6.788;2023-03-12T00:15:47;6.80;;;2.57;;
9214;SDS011;4642;51.364;6.788;2023-03-12T00:18:12;4.97;;;3.10;;
9214;SDS011;4642;51.364;6.788;2023-03-12T00:20:38;7.87;;;3.53;;
9214;SDS011;4642;51.364;6.788;2023-03-12T00:23:03;6.73;;;2.70;;
9214;SDS011;4642;51.364;6.788;2023-03-12T00:25:29;4.87;;;3.10;;
9214;SDS011;4642;51.364;6.788;2023-03-12T00:27:55;7.93;;;3.07;;
9214;SDS011;4642;51.364;6.788;2023-03-12T00:30:20;8.43;;;2.93;;
9214;SDS011;4642;51.364;6.788;2023-03-12T00:32:46;6.27;;;2.53;;
9214;SDS011;4642;51.364;6.788;2023-03-12T00:35:11;5.00;;;2.70;;
9214;SDS011;4642;51.364;6.788;2023-03-12T00:37:37;4.20;;;2.40;;
9214;SDS011;4642;51.364;6.788;2023-03-12T00:40:03;7.70;;;2.47;;
9214;SDS011;4642;51.364;6.788;2023-03-12T00:42:30;6.10;;;2.33;;
9214;SDS011;4642;51.364;6.788;2023-03-12T00:44:56;4.60;;;1.90;;
9214;SDS011;4642;51.364;6.788;2023-03-12T00:47:21;3.73;;;2.27;;
9214;SDS011;4642;51.364;6.788;2023-03-12T00:49:47;5.13;;;2.27;;
9214;SDS011;4642;51.364;6.788;2023-03-12T00:52:12;4.73;;;2.20;;
9214;SDS011;4642;51.364;6.788;2023-03-12T00:54:38;5.50;;;2.30;;
9214;SDS011;4642;51.364;6.788;2023-03-12T00:57:04;2.13;;;1.50;;
9214;SDS011;4642;51.364;6.788;2023-03-12T00:59:29;2.93;;;2.10;;
9214;SDS011;4642;51.364;6.788;2023-03-12T01:01:55;8.17;;;1.83;;
9214;SDS011;4642;51.364;6.788;2023-03-12T01:04:21;3.10;;;2.00;;
9214;SDS011;4642;51.364;6.788;2023-03-12T01:06:47;5.93;;;2.20;;
9214;SDS011;4642;51.364;6.788;2023-03-12T01:09:12;3.30;;;2.13;;
9214;SDS011;4642;51.364;6.788;2023-03-12T01:11:38;4.07;;;1.73;;
9214;SDS011;4642;51.364;6.788;2023-03-12T01:14:05;3.23;;;1.80;;
9214;SDS011;4642;51.364;6.788;2023-03-12T01:16:32;6.53;;;1.83;;
9214;SDS011;4642;51.364;6.788;2023-03-12T01:18:58;3.77;;;1.60;;
9214;SDS011;4642;51.364;6.788;2023-03-12T01:21:26;2.63;;;1.83;;
9214;SDS011;4642;51.364;6.788;2023-03-12T01:23:52;5.83;;;2.20;;
9214;SDS011;4642;51.364;6.788;2023-03-12T01:26:19;6.50;;;2.00;;
9214;SDS011;4642;51.364;6.788;2023-03-12T01:28:44;5.77;;;2.13;;
9214;SDS011;4642;51.364;6.788;2023-03-12T01:31:12;4.30;;;1.83;;
9214;SDS011;4642;51.364;6.788;2023-03-12T01:33:40;3.50;;;1.73;;
9214;SDS011;4642;51.364;6.788;2023-03-12T01:36:16;5.07;;;1.63;;
9214;SDS011;4642;51.364;6.788;2023-03-12T01:38:50;3.47;;;1.80;;
9214;SDS011;4642;51.364;6.788;2023-03-12T01:41:17;8.20;;;2.10;;
9214;SDS011;4642;51.364;6.788;2023-03-12T01:43:43;4.37;;;1.93;;
9214;SDS011;4642;51.364;6.788;2023-03-12T01:51:39;6.53;;;1.60;;
9214;SDS011;4642;51.364;6.788;2023-03-12T01:54:19;4.93;;;1.57;;
9214;SDS011;4642;51.364;6.788;2023-03-12T01:56:49;4.43;;;1.70;;
9214;SDS011;4642;51.364;6.788;2023-03-12T01:59:17;7.07;;;1.70;;
9214;SDS011;4642;51.364;6.788;2023-03-12T02:01:47;4.50;;;2.13;;
9214;SDS011;4642;51.364;6.788;2023-03-12T02:04:14;7.00;;;1.90;;
9214;SDS011;4642;51.364;6.788;2023-03-12T02:07:04;6.40;;;2.20;;
9214;SDS011;4642;51.364;6.788;2023-03-12T02:09:31;6.70;;;1.70;;
9214;SDS011;4642;51.364;6.788;2023-03-12T02:11:58;7.27;;;2.40;;
9214;SDS011;4642;51.364;6.788;2023-03-12T02:14:24;3.37;;;1.93;;
9214;SDS011;4642;51.364;6.788;2023-03-12T02:16:50;3.57;;;1.93;;
9214;SDS011;4642;51.364;6.788;2023-03-12T02:22:21;2.97;;;1.50;;
9214;SDS011;4642;51.364;6.788;2023-03-12T02:24:57;4.37;;;1.90;;
9214;SDS011;4642;51.364;6.788;2023-03-12T02:27:32;4.07;;;2.07;;
9214;SDS011;4642;51.364;6.788;2023-03-12T02:30:00;2.63;;;1.90;;
9214;SDS011;4642;51.364;6.788;2023-03-12T02:32:27;2.80;;;1.80;;
9214;SDS011;4642;51.364;6.788;2023-03-12T02:34:58;3.47;;;2.00;;
9214;SDS011;4642;51.364;6.788;2023-03-12T02:37:24;3.23;;;1.63;;
9214;SDS011;4642;51.364;6.788;2023-03-12T02:39:52;7.00;;;1.70;;
9214;SDS011;4642;51.364;6.788;2023-03-12T02:42:21;3.00;;;1.60;;
9214;SDS011;4642;51.364;6.788;2023-03-12T02:44:48;4.90;;;2.30;;
9214;SDS011;4642;51.364;6.788;2023-03-12T02:47:13;8.73;;;2.77;;
9214;SDS011;4642;51.364;6.788;2023-03-12T02:49:39;7.00;;;1.93;;
9214;SDS011;4642;51.364;6.788;2023-03-12T02:52:05;4.03;;;2.00;;
9214;SDS011;4642;51.364;6.788;2023-03-12T02:54:30;6.80;;;1.90;;
9214;SDS011;4642;51.364;6.788;2023-03-12T02:56:56;4.77;;;2.20;;
9214;SDS011;4642;51.364;6.788;2023-03-12T02:59:22;5.60;;;1.70;;
9214;SDS011;4642;51.364;6.788;2023-03-12T03:01:50;3.63;;;1.80;;
9214;SDS011;4642;51.364;6.788;2023-03-12T03:04:18;4.17;;;1.93;;
9214;SDS011;4642;51.364;6.788;2023-03-12T03:06:44;6.30;;;2.00;;
9214;SDS011;4642;51.364;6.788;2023-03-12T03:09:12;8.03;;;2.30;;
9214;SDS011;4642;51.364;6.788;2023-03-12T03:11:38;3.80;;;2.23;;
9214;SDS011;4642;51.364;6.788;2023-03-12T03:14:03;3.23;;;2.13;;
9214;SDS011;4642;51.364;6.788;2023-03-12T03:16:30;5.93;;;2.10;;
9214;SDS011;4642;51.364;6.788;2023-03-12T03:18:56;4.50;;;2.07;;
9214;SDS011;4642;51.364;6.788;2023-03-12T03:21:21;8.40;;;2.00;;
9214;SDS011;4642;51.364;6.788;2023-03-12T03:23:48;4.67;;;1.90;;
9214;SDS011;4642;51.364;6.788;2023-03-12T03:26:15;8.03;;;1.70;;
9214;SDS011;4642;51.364;6.788;2023-03-12T03:28:42;4.73;;;1.93;;
9214;SDS011;4642;51.364;6.788;2023-03-12T03:31:07;5.67;;;2.27;;
9214;SDS011;4642;51.364;6.788;2023-03-12T03:33:34;3.10;;;1.87;;
9214;SDS011;4642;51.364;6.788;2023-03-12T03:36:01;3.47;;;1.67;;
9214;SDS011;4642;51.364;6.788;2023-03-12T03:38:28;2.93;;;1.60;;
9214;SDS011;4642;51.364;6.788;2023-03-12T03:40:54;5.23;;;1.67;;
9214;SDS011;4642;51.364;6.788;2023-03-12T03:43:20;7.53;;;1.50;;
9214;SDS011;4642;51.364;6.788;2023-03-12T03:45:46;3.40;;;1.30;;
9214;SDS011;4642;51.364;6.788;2023-03-12T03:48:12;3.27;;;1.70;;
9214;SDS011;4642;51.364;6.788;2023-03-12T03:50:38;2.67;;;1.73;;
9214;SDS011;4642;51.364;6.788;2023-03-12T03:53:05;4.77;;;1.93;;
9214;SDS011;4642;51.364;6.788;2023-03-12T03:55:35;3.13;;;1.70;;
9214;SDS011;4642;51.364;6.788;2023-03-12T03:58:01;3.13;;;1.77;;
9214;SDS011;4642;51.364;6.788;2023-03-12T04:00:27;6.00;;;1.80;;
9214;SDS011;4642;51.364;6.788;2023-03-12T04:02:52;2.03;;;1.40;;
9214;SDS011;4642;51.364;6.788;2023-03-12T04:05:19;2.23;;;1.43;;
9214;SDS011;4642;51.364;6.788;2023-03-12T04:07:45;5.43;;;2.10;;
9214;SDS011;4642;51.364;6.788;2023-03-12T04:10:11;2.67;;;1.43;;
9214;SDS011;4642;51.364;6.788;2023-03-12T04:12:37;4.47;;;1.60;;
9214;SDS011;4642;51.364;6.788;2023-03-12T04:15:03;4.23;;;1.53;;
9214;SDS011;4642;51.364;6.788;2023-03-12T04:17:29;6.60;;;1.67;;
9214;SDS011;4642;51.364;6.788;2023-03-12T04:19:55;3.83;;;1.33;;
9214;SDS011;4642;51.364;6.788;2023-03-12T04:22:21;2.50;;;1.60;;
9214;SDS011;4642;51.364;6.788;2023-03-12T04:24:46;6.50;;;1.73;;
9214;SDS011;4642;51.364;6.788;2023-03-12T04:27:12;4.17;;;1.83;;
9214;SDS011;4642;51.364;6.788;2023-03-12T04:29:37;3.43;;;1.33;;
9214;SDS011;4642;51.364;6.788;2023-03-12T04:32:04;5.60;;;1.50;;
9214;SDS011;4642;51.364;6.788;2023-03-12T04:34:31;8.37;;;1.73;;
9214;SDS011;4642;51.364;6.788;2023-03-12T04:36:56;4.30;;;1.80;;
9214;SDS011;4642;51.364;6.788;2023-03-12T04:39:22;4.27;;;1.90;;
9214;SDS011;4642;51.364;6.788;2023-03-12T04:41:48;2.27;;;1.40;;
9214;SDS011;4642;51.364;6.788;2023-03-12T04:44:13;6.80;;;1.70;;
9214;SDS011;4642;51.364;6.788;2023-03-12T04:46:39;3.80;;;1.80;;
9214;SDS011;4642;51.364;6.788;2023-03-12T04:49:05;3.93;;;1.63;;
9214;SDS011;4642;51.364;6.788;2023-03-12T04:51:31;4.90;;;1.70;;
9214;SDS011;4642;51.364;6.788;2023-03-12T04:53:57;3.43;;;1.50;;
9214;SDS011;4642;51.364;6.788;2023-03-12T04:56:23;5.50;;;1.70;;
9214;SDS011;4642;51.364;6.788;2023-03-12T04:58:48;6.00;;;1.57;;
9214;SDS011;4642;51.364;6.788;2023-03-12T05:01:18;5.10;;;1.67;;
9214;SDS011;4642;51.364;6.788;2023-03-12T05:03:53;4.63;;;1.80;;
9214;SDS011;4642;51.364;6.788;2023-03-12T05:06:19;6.03;;;1.97;;
9214;SDS011;4642;51.364;6.788;2023-03-12T05:08:46;3.00;;;1.43;;
9214;SDS011;4642;51.364;6.788;2023-03-12T05:11:12;3.33;;;1.70;;
9214;SDS011;4642;51.364;6.788;2023-03-12T05:13:39;3.47;;;1.57;;
9214;SDS011;4642;51.364;6.788;2023-03-12T05:16:05;1.80;;;1.33;;
9214;SDS011;4642;51.364;6.788;2023-03-12T05:18:31;3.60;;;1.80;;
9214;SDS011;4642;51.364;6.788;2023-03-12T05:20:57;5.67;;;1.80;;
9214;SDS011;4642;51.364;6.788;2023-03-12T05:23:28;4.30;;;1.60;;
9214;SDS011;4642;51.364;6.788;2023-03-12T05:25:54;4.70;;;2.00;;
9214;SDS011;4642;51.364;6.788;2023-03-12T05:28:20;5.83;;;1.73;;
9214;SDS011;4642;51.364;6.788;2023-03-12T05:30:51;3.17;;;1.63;;
9214;SDS011;4642;51.364;6.788;2023-03-12T05:33:21;3.33;;;1.80;;
9214;SDS011;4642;51.364;6.788;2023-03-12T05:35:46;3.30;;;1.70;;
9214;SDS011;4642;51.364;6.788;2023-03-12T05:38:12;6.50;;;2.10;;
9214;SDS011;4642;51.364;6.788;2023-03-12T05:40:37;2.90;;;1.63;;
9214;SDS011;4642;51.364;6.788;2023-03-12T05:43:03;5.17;;;1.80;;
9214;SDS011;4642;51.364;6.788;2023-03-12T05:45:31;7.13;;;2.00;;
9214;SDS011;4642;51.364;6.788;2023-03-12T05:47:57;6.87;;;1.60;;
9214;SDS011;4642;51.364;6.788;2023-03-12T05:50:24;4.47;;;2.20;;
9214;SDS011;4642;51.364;6.788;2023-03-12T05:52:50;5.73;;;1.80;;
9214;SDS011;4642;51.364;6.788;2023-03-12T05:55:16;3.47;;;1.73;;
9214;SDS011;4642;51.364;6.788;2023-03-12T05:57:42;3.87;;;2.00;;
9214;SDS011;4642;51.364;6.788;2023-03-12T06:00:07;2.77;;;1.80;;
9214;SDS011;4642;51.364;6.788;2023-03-12T06:02:33;12.07;;;2.17;;
9214;SDS011;4642;51.364;6.788;2023-03-12T06:04:59;5.37;;;2.13;;
9214;SDS011;4642;51.364;6.788;2023-03-12T06:07:25;3.07;;;2.00;;
9214;SDS011;4642;51.364;6.788;2023-03-12T06:09:50;3.63;;;2.10;;
9214;SDS011;4642;51.364;6.788;2023-03-12T06:12:16;2.70;;;1.70;;
9214;SDS011;4642;51.364;6.788;2023-03-12T06:14:41;4.70;;;2.00;;
9214;SDS011;4642;51.364;6.788;2023-03-12T06:17:07;4.13;;;2.10;;
9214;SDS011;4642;51.364;6.788;2023-03-12T06:19:32;2.23;;;1.70;;
9214;SDS011;4642;51.364;6.788;2023-03-12T06:21:58;4.47;;;1.97;;
9214;SDS011;4642;51.364;6.788;2023-03-12T06:24:23;3.47;;;1.90;;
9214;SDS011;4642;51.364;6.788;2023-03-12T06:26:49;8.87;;;2.10;;
9214;SDS011;4642;51.364;6.788;2023-03-12T06:29:15;12.17;;;2.23;;
9214;SDS011;4642;51.364;6.788;2023-03-12T06:31:40;3.53;;;1.67;;
9214;SDS011;4642;51.364;6.788;2023-03-12T06:34:07;4.77;;;2.33;;
9214;SDS011;4642;51.364;6.788;2023-03-12T06:36:34;4.70;;;1.63;;
9214;SDS011;4642;51.364;6.788;2023-03-12T06:38:59;5.00;;;2.27;;
9214;SDS011;4642;51.364;6.788;2023-03-12T06:41:25;3.47;;;2.20;;
9214;SDS011;4642;51.364;6.788;2023-03-12T06:43:51;8.67;;;2.53;;
9214;SDS011;4642;51.364;6.788;2023-03-12T06:46:18;6.17;;;2.00;;
9214;SDS011;4642;51.364;6.788;2023-03-12T06:48:49;8.47;;;2.13;;
9214;SDS011;4642;51.364;6.788;2023-03-12T06:51:15;6.33;;;2.33;;
9214;SDS011;4642;51.364;6.788;2023-03-12T06:53:41;9.23;;;2.33;;
9214;SDS011;4642;51.364;6.788;2023-03-12T06:56:07;4.77;;;2.10;;
9214;SDS011;4642;51.364;6.788;2023-03-12T06:58:32;7.43;;;2.37;;
9214;SDS011;4642;51.364;6.788;2023-03-12T07:00:58;4.40;;;1.80;;
9214;SDS011;4642;51.364;6.788;2023-03-12T07:03:23;6.37;;;2.60;;
9214;SDS011;4642;51.364;6.788;2023-03-12T07:05:49;8.33;;;2.40;;
9214;SDS011;4642;51.364;6.788;2023-03-12T07:08:16;7.73;;;2.30;;
9214;SDS011;4642;51.364;6.788;2023-03-12T07:10:42;5.47;;;2.40;;
9214;SDS011;4642;51.364;6.788;2023-03-12T07:13:08;3.07;;;1.83;;
9214;SDS011;4642;51.364;6.788;2023-03-12T07:15:34;8.23;;;2.17;;
9214;SDS011;4642;51.364;6.788;2023-03-12T07:18:00;3.97;;;2.17;;
9214;SDS011;4642;51.364;6.788;2023-03-12T07:20:30;5.47;;;2.47;;
9214;SDS011;4642;51.364;6.788;2023-03-12T07:22:56;7.77;;;2.70;;
9214;SDS011;4642;51.364;6.788;2023-03-12T07:25:22;4.57;;;2.50;;
9214;SDS011;4642;51.364;6.788;2023-03-12T07:27:48;2.97;;;2.07;;
9214;SDS011;4642;51.364;6.788;2023-03-12T07:30:13;4.10;;;1.90;;
9214;SDS011;4642;51.364;6.788;2023-03-12T07:32:39;5.07;;;2.23;;
9214;SDS011;4642;51.364;6.788;2023-03-12T07:35:05;4.47;;;2.23;;
9214;SDS011;4642;51.364;6.788;2023-03-12T07:37:31;5.53;;;2.23;;
9214;SDS011;4642;51.364;6.788;2023-03-12T07:39:56;5.77;;;2.10;;
9214;SDS011;4642;51.364;6.788;2023-03-12T07:42:22;5.60;;;2.23;;
9214;SDS011;4642;51.364;6.788;2023-03-12T07:44:48;4.87;;;1.93;;
9214;SDS011;4642;51.364;6.788;2023-03-12T07:47:13;6.20;;;2.17;;
9214;SDS011;4642;51.364;6.788;2023-03-12T07:49:39;4.50;;;2.37;;
9214;SDS011;4642;51.364;6.788;2023-03-12T07:52:06;3.97;;;1.97;;
9214;SDS011;4642;51.364;6.788;2023-03-12T07:54:34;4.00;;;2.10;;
9214;SDS011;4642;51.364;6.788;2023-03-12T07:57:00;5.13;;;2.37;;
9214;SDS011;4642;51.364;6.788;2023-03-12T07:59:25;4.80;;;2.33;;
9214;SDS011;4642;51.364;6.788;2023-03-12T08:01:51;7.03;;;2.30;;
9214;SDS011;4642;51.364;6.788;2023-03-12T08:04:17;7.13;;;2.60;;
9214;SDS011;4642;51.364;6.788;2023-03-12T08:06:43;5.00;;;2.27;;
9214;SDS011;4642;51.364;6.788;2023-03-12T08:09:08;4.87;;;2.23;;
9214;SDS011;4642;51.364;6.788;2023-03-12T08:11:34;6.33;;;2.80;;
9214;SDS011;4642;51.364;6.788;2023-03-12T08:14:01;5.50;;;2.33;;
9214;SDS011;4642;51.364;6.788;2023-03-12T08:16:27;7.33;;;2.53;;
9214;SDS011;4642;51.364;6.788;2023-03-12T08:18:53;7.60;;;2.40;;
9214;SDS011;4642;51.364;6.788;2023-03-12T08:21:19;7.17;;;2.07;;
9214;SDS011;4642;51.364;6.788;2023-03-12T08:23:44;4.20;;;2.20;;
9214;SDS011;4642;51.364;6.788;2023-03-12T08:26:10;5.00;;;2.27;;
9214;SDS011;4642;51.364;6.788;2023-03-12T08:28:35;6.73;;;2.70;;
9214;SDS011;4642;51.364;6.788;2023-03-12T08:31:01;5.97;;;2.77;;
9214;SDS011;4642;51.364;6.788;2023-03-12T08:33:26;5.90;;;2.40;;
9214;SDS011;4642;51.364;6.788;2023-03-12T08:35:52;5.73;;;2.77;;
9214;SDS011;4642;51.364;6.788;2023-03-12T08:38:18;5.93;;;2.80;;
9214;SDS011;4642;51.364;6.788;2023-03-12T08:40:44;6.27;;;2.43;;
9214;SDS011;4642;51.364;6.788;2023-03-12T08:43:10;4.73;;;2.63;;
9214;SDS011;4642;51.364;6.788;2023-03-12T08:45:35;6.40;;;2.63;;
9214;SDS011;4642;51.364;6.788;2023-03-12T08:48:05;4.87;;;2.30;;
9214;SDS011;4642;51.364;6.788;2023-03-12T08:50:31;5.77;;;2.53;;
9214;SDS011;4642;51.364;6.788;2023-03-12T08:52:57;7.27;;;3.03;;
9214;SDS011;4642;51.364;6.788;2023-03-12T08:55:24;7.60;;;2.57;;
9214;SDS011;4642;51.364;6.788;2023-03-12T08:57:52;5.70;;;3.23;;
9214;SDS011;4642;51.364;6.788;2023-03-12T09:00:18;4.90;;;3.17;;
9214;SDS011;4642;51.364;6.788;2023-03-12T09:02:44;5.13;;;2.83;;
9214;SDS011;4642;51.364;6.788;2023-03-12T09:05:10;5.70;;;3.13;;
9214;SDS011;4642;51.364;6.788;2023-03-12T09:07:37;5.37;;;2.93;;
9214;SDS011;4642;51.364;6.788;2023-03-12T09:10:03;4.63;;;2.73;;
9214;SDS011;4642;51.364;6.788;2023-03-12T09:12:29;3.57;;;2.37;;
9214;SDS011;4642;51.364;6.788;2023-03-12T09:14:55;8.87;;;3.47;;
9214;SDS011;4642;51.364;6.788;2023-03-12T09:17:20;4.50;;;3.20;;
9214;SDS011;4642;51.364;6.788;2023-03-12T09:19:46;4.27;;;2.87;;
9214;SDS011;4642;51.364;6.788;2023-03-12T09:22:11;4.67;;;2.70;;
9214;SDS011;4642;51.364;6.788;2023-03-12T09:24:37;6.77;;;3.23;;
9214;SDS011;4642;51.364;6.788;2023-03-12T09:27:03;8.73;;;3.83;;
9214;SDS011;4642;51.364;6.788;2023-03-12T09:29:28;8.60;;;3.13;;
9214;SDS011;4642;51.364;6.788;2023-03-12T09:31:55;5.17;;;3.27;;
9214;SDS011;4642;51.364;6.788;2023-03-12T09:34:20;5.50;;;3.90;;
9214;SDS011;4642;51.364;6.788;2023-03-12T09:36:46;9.20;;;3.47;;
9214;SDS011;4642;51.364;6.788;2023-03-12T09:39:11;6.60;;;3.87;;
9214;SDS011;4642;51.364;6.788;2023-03-12T09:41:38;11.27;;;4.13;;
9214;SDS011;4642;51.364;6.788;2023-03-12T09:44:12;4.47;;;3.30;;
9214;SDS011;4642;51.364;6.788;2023-03-12T09:47:01;4.63;;;3.67;;
9214;SDS011;4642;51.364;6.788;2023-03-12T09:54:56;5.50;;;3.80;;
9214;SDS011;4642;51.364;6.788;2023-03-12T09:57:26;4.27;;;3.60;;
9214;SDS011;4642;51.364;6.788;2023-03-12T09:59:54;4.87;;;3.83;;
9214;SDS011;4642;51.364;6.788;2023-03-12T10:05:19;8.17;;;4.23;;
9214;SDS011;4642;51.364;6.788;2023-03-12T10:07:56;7.03;;;4.37;;
9214;SDS011;4642;51.364;6.788;2023-03-12T10:10:47;5.63;;;4.47;;
9214;SDS011;4642;51.364;6.788;2023-03-12T10:13:37;7.13;;;5.23;;
9214;SDS011;4642;51.364;6.788;2023-03-12T10:22:54;9.40;;;5.10;;
9214;SDS011;4642;51.364;6.788;2023-03-12T10:25:31;7.13;;;5.07;;
9214;SDS011;4642;51.364;6.788;2023-03-12T10:28:05;5.83;;;4.90;;
9214;SDS011;4642;51.364;6.788;2023-03-12T10:30:41;7.27;;;5.40;;
9214;SDS011;4642;51.364;6.788;2023-03-12T10:33:15;6.27;;;4.87;;
9214;SDS011;4642;51.364;6.788;2023-03-12T10:35:43;6.70;;;5.03;;
9214;SDS011;4642;51.364;6.788;2023-03-12T10:38:10;6.43;;;4.70;;
9214;SDS011;4642;51.364;6.788;2023-03-12T10:40:53;8.57;;;5.20;;
9214;SDS011;4642;51.364;6.788;2023-03-12T10:43:18;6.40;;;5.20;;
9214;SDS011;4642;51.364;6.788;2023-03-12T10:48:39;5.60;;;5.00;;
9214;SDS011;4642;51.364;6.788;2023-03-12T10:51:07;9.03;;;6.10;;
9214;SDS011;4642;51.364;6.788;2023-03-12T10:53:36;9.50;;;6.07;;
9214;SDS011;4642;51.364;6.788;2023-03-12T10:56:05;8.60;;;5.57;;
9214;SDS011;4642;51.364;6.788;2023-03-12T10:58:34;7.27;;;5.13;;
9214;SDS011;4642;51.364;6.788;2023-03-12T11:01:24;8.43;;;5.20;;
9214;SDS011;4642;51.364;6.788;2023-03-12T11:04:07;6.80;;;5.30;;
9214;SDS011;4642;51.364;6.788;2023-03-12T11:07:31;7.77;;;5.80;;
9214;SDS011;4642;51.364;6.788;2023-03-12T11:09:43;7.70;;;5.47;;
9214;SDS011;4642;51.364;6.788;2023-03-12T11:12:22;10.90;;;5.20;;
9214;SDS011;4642;51.364;6.788;2023-03-12T11:14:52;6.43;;;5.77;;
9214;SDS011;4642;51.364;6.788;2023-03-12T11:17:19;8.67;;;5.50;;
9214;SDS011;4642;51.364;6.788;2023-03-12T11:19:46;7.07;;;5.60;;
9214;SDS011;4642;51.364;6.788;2023-03-12T11:22:12;8.03;;;5.70;;
9214;SDS011;4642;51.364;6.788;2023-03-12T11:25:02;6.97;;;5.60;;
9214;SDS011;4642;51.364;6.788;2023-03-12T11:27:43;9.03;;;5.40;;
9214;SDS011;4642;51.364;6.788;2023-03-12T11:30:14;7.07;;;6.13;;
9214;SDS011;4642;51.364;6.788;2023-03-12T11:32:47;8.90;;;6.20;;
9214;SDS011;4642;51.364;6.788;2023-03-12T11:35:19;8.33;;;6.60;;
9214;SDS011;4642;51.364;6.788;2023-03-12T11:38:02;6.90;;;6.20;;
9214;SDS011;4642;51.364;6.788;2023-03-12T11:41:01;7.70;;;6.80;;
9214;SDS011;4642;51.364;6.788;2023-03-12T11:43:47;11.80;;;6.97;;
9214;SDS011;4642;51.364;6.788;2023-03-12T11:49:07;11.10;;;8.23;;
9214;SDS011;4642;51.364;6.788;2023-03-12T11:51:55;9.90;;;8.50;;
9214;SDS011;4642;51.364;6.788;2023-03-12T11:54:47;11.90;;;9.00;;
9214;SDS011;4642;51.364;6.788;2023-03-12T12:00:23;11.13;;;8.77;;
9214;SDS011;4642;51.364;6.788;2023-03-12T12:05:38;11.77;;;9.57;;
9214;SDS011;4642;51.364;6.788;2023-03-12T12:08:24;13.03;;;10.23;;
9214;SDS011;4642;51.364;6.788;2023-03-12T12:22:12;12.77;;;9.97;;
9214;SDS011;4642;51.364;6.788;2023-03-12T12:27:39;15.07;;;10.60;;
9214;SDS011;4642;51.364;6.788;2023-03-12T12:35:57;16.17;;;9.93;;
9214;SDS011;4642;51.364;6.788;2023-03-12T12:40:59;17.33;;;10.83;;
9214;SDS011;4642;51.364;6.788;2023-03-12T12:43:36;16.60;;;10.40;;
9214;SDS011;4642;51.364;6.788;2023-03-12T12:46:04;16.60;;;10.63;;
9214;SDS011;4642;51.364;6.788;2023-03-12T12:48:37;19.67;;;11.60;;
9214;SDS011;4642;51.364;6.788;2023-03-12T12:51:04;18.93;;;11.20;;
9214;SDS011;4642;51.364;6.788;2023-03-12T12:53:34;22.77;;;12.90;;
9214;SDS011;4642;51.364;6.788;2023-03-12T13:01:17;21.27;;;12.90;;
9214;SDS011;4642;51.364;6.788;2023-03-12T13:03:44;24.20;;;13.73;;
9214;SDS011;4642;51.364;6.788;2023-03-12T13:06:10;19.77;;;13.20;;
9214;SDS011;4642;51.364;6.788;2023-03-12T13:16:46;30.37;;;14.33;;
9214;SDS011;4642;51.364;6.788;2023-03-12T13:27:30;25.03;;;14.43;;
9214;SDS011;4642;51.364;6.788;2023-03-12T13:30:25;29.60;;;15.20;;
9214;SDS011;4642;51.364;6.788;2023-03-12T13:33:10;33.83;;;13.50;;
9214;SDS011;4642;51.364;6.788;2023-03-12T13:35:38;37.70;;;12.10;;
9214;SDS011;4642;51.364;6.788;2023-03-12T13:38:05;37.33;;;9.43;;
9214;SDS011;4642;51.364;6.788;2023-03-12T13:40:37;34.10;;;8.90;;
9214;SDS011;4642;51.364;6.788;2023-03-12T13:43:16;40.17;;;8.07;;
9214;SDS011;4642;51.364;6.788;2023-03-12T13:46:07;40.83;;;7.93;;
9214;SDS011;4642;51.364;6.788;2023-03-12T13:48:51;33.97;;;7.67;;
9214;SDS011;4642;51.364;6.788;2023-03-12T13:51:22;38.87;;;8.63;;
9214;SDS011;4642;51.364;6.788;2023-03-12T13:53:52;34.67;;;6.80;;
9214;SDS011;4642;51.364;6.788;2023-03-12T13:56:27;26.83;;;6.63;;
9214;SDS011;4642;51.364;6.788;2023-03-12T14:01:24;29.37;;;6.57;;
9214;SDS011;4642;51.364;6.788;2023-03-12T14:03:55;30.50;;;6.80;;
9214;SDS011;4642;51.364;6.788;2023-03-12T14:06:27;29.87;;;6.30;;
9214;SDS011;4642;51.364;6.788;2023-03-12T14:14:42;24.60;;;5.60;;
9214;SDS011;4642;51.364;6.788;2023-03-12T14:17:24;23.40;;;5.17;;
9214;SDS011;4642;51.364;6.788;2023-03-12T14:22:36;21.60;;;5.13;;
9214;SDS011;4642;51.364;6.788;2023-03-12T14:27:51;20.47;;;4.67;;
9214;SDS011;4642;51.364;6.788;2023-03-12T14:32:47;19.37;;;5.73;;
9214;SDS011;4642;51.364;6.788;2023-03-12T14:35:24;25.33;;;5.60;;
9214;SDS011;4642;51.364;6.788;2023-03-12T14:37:55;23.47;;;4.83;;
9214;SDS011;4642;51.364;6.788;2023-03-12T14:40:41;31.50;;;5.30;;
9214;SDS011;4642;51.364;6.788;2023-03-12T14:43:28;20.20;;;4.43;;
9214;SDS011;4642;51.364;6.788;2023-03-12T14:45:56;21.53;;;5.40;;
9214;SDS011;4642;51.364;6.788;2023-03-12T14:48:28;32.67;;;4.67;;
9214;SDS011;4642;51.364;6.788;2023-03-12T14:50:59;24.27;;;4.97;;
9214;SDS011;4642;51.364;6.788;2023-03-12T14:58:32;26.47;;;4.30;;
9214;SDS011;4642;51.364;6.788;2023-03-12T15:01:00;22.63;;;4.40;;
9214;SDS011;4642;51.364;6.788;2023-03-12T15:03:28;22.60;;;3.97;;
9214;SDS011;4642;51.364;6.788;2023-03-12T15:05:57;23.87;;;4.47;;
9214;SDS011;4642;51.364;6.788;2023-03-12T15:08:23;25.37;;;4.67;;
9214;SDS011;4642;51.364;6.788;2023-03-12T15:10:53;23.67;;;4.17;;
9214;SDS011;4642;51.364;6.788;2023-03-12T15:13:21;23.07;;;4.17;;
9214;SDS011;4642;51.364;6.788;2023-03-12T15:15:50;23.80;;;4.23;;
9214;SDS011;4642;51.364;6.788;2023-03-12T15:18:18;21.77;;;4.33;;
9214;SDS011;4642;51.364;6.788;2023-03-12T15:20:52;22.17;;;4.07;;
9214;SDS011;4642;51.364;6.788;2023-03-12T15:23:21;23.97;;;4.30;;
9214;SDS011;4642;51.364;6.788;2023-03-12T15:26:07;21.70;;;4.13;;
9214;SDS011;4642;51.364;6.788;2023-03-12T15:28:34;26.27;;;4.87;;
9214;SDS011;4642;51.364;6.788;2023-03-12T15:31:07;21.23;;;4.70;;
9214;SDS011;4642;51.364;6.788;2023-03-12T15:33:34;16.30;;;3.30;;
9214;SDS011;4642;51.364;6.788;2023-03-12T15:38:47;23.23;;;4.60;;
9214;SDS011;4642;51.364;6.788;2023-03-12T15:41:20;24.43;;;4.57;;
9214;SDS011;4642;51.364;6.788;2023-03-12T15:43:55;17.97;;;3.97;;
9214;SDS011;4642;51.364;6.788;2023-03-12T15:46:24;22.27;;;4.63;;
9214;SDS011;4642;51.364;6.788;2023-03-12T15:48:55;18.53;;;4.50;;
9214;SDS011;4642;51.364;6.788;2023-03-12T15:51:33;24.83;;;4.80;;
9214;SDS011;4642;51.364;6.788;2023-03-12T15:54:02;25.37;;;4.23;;
9214;SDS011;4642;51.364;6.788;2023-03-12T15:56:37;23.50;;;4.60;;
9214;SDS011;4642;51.364;6.788;2023-03-12T15:59:04;20.37;;;4.50;;
9214;SDS011;4642;51.364;6.788;2023-03-12T16:01:45;21.97;;;4.40;;
9214;SDS011;4642;51.364;6.788;2023-03-12T16:04:16;23.50;;;4.37;;
9214;SDS011;4642;51.364;6.788;2023-03-12T16:06:43;18.70;;;4.20;;
9214;SDS011;4642;51.364;6.788;2023-03-12T16:09:13;17.63;;;3.93;;
9214;SDS011;4642;51.364;6.788;2023-03-12T16:11:42;16.13;;;4.20;;
9214;SDS011;4642;51.364;6.788;2023-03-12T16:14:13;19.40;;;4.10;;
9214;SDS011;4642;51.364;6.788;2023-03-12T16:16:42;23.53;;;4.73;;
9214;SDS011;4642;51.364;6.788;2023-03-12T16:19:10;17.97;;;3.73;;
9214;SDS011;4642;51.364;6.788;2023-03-12T16:21:40;17.33;;;3.63;;
9214;SDS011;4642;51.364;6.788;2023-03-12T16:24:06;16.33;;;3.73;;
9214;SDS011;4642;51.364;6.788;2023-03-12T16:26:32;29.23;;;4.27;;
9214;SDS011;4642;51.364;6.788;2023-03-12T16:28:59;22.57;;;4.13;;
9214;SDS011;4642;51.364;6.788;2023-03-12T16:31:24;22.77;;;4.13;;
9214;SDS011;4642;51.364;6.788;2023-03-12T16:33:50;20.37;;;4.17;;
9214;SDS011;4642;51.364;6.788;2023-03-12T16:36:16;24.20;;;4.37;;
9214;SDS011;4642;51.364;6.788;2023-03-12T16:38:43;20.50;;;4.00;;
9214;SDS011;4642;51.364;6.788;2023-03-12T16:41:10;16.90;;;3.93;;
9214;SDS011;4642;51.364;6.788;2023-03-12T16:43:40;15.37;;;3.57;;
9214;SDS011;4642;51.364;6.788;2023-03-12T16:46:13;18.90;;;4.83;;
9214;SDS011;4642;51.364;6.788;2023-03-12T16:48:39;17.10;;;4.07;;
9214;SDS011;4642;51.364;6.788;2023-03-12T16:51:10;21.17;;;4.40;;
9214;SDS011;4642;51.364;6.788;2023-03-12T16:53:38;18.93;;;5.27;;
9214;SDS011;4642;51.364;6.788;2023-03-12T16:56:03;19.27;;;4.30;;
9214;SDS011;4642;51.364;6.788;2023-03-12T16:58:30;18.13;;;4.03;;
9214;SDS011;4642;51.364;6.788;2023-03-12T17:00:56;14.47;;;3.77;;
9214;SDS011;4642;51.364;6.788;2023-03-12T17:06:01;20.20;;;3.67;;